Time;durP1;ratioP1;P1;durP2;ratioP2;P2;SDS_P1;SDS_P2;PMS_P1;PMS_P2;Temp;Humidity;BMP_temperature;BMP_pressure;BME280_temperature;BME280_humidity;BME280_pressure;Samples;Min_cycle;Max_cycle;Signal;HPM_P1;HPM_P2
2023/12/04 00:04:49;;;;;;;79.25;9.00;;;;;;;6.50;100.00;100493.22;10458864;28;20029;-67
2023/12/04 00:09:50;;;;;;;103.72;8.30;;;;;;;6.50;100.00;100495.03;10458419;28;20036;-67
2023/12/04 00:14:50;;;;;;;120.63;8.95;;;;;;;6.22;100.00;100463.19;10459633;28;20048;-67
2023/12/04 00:19:51;;;;;;;60.70;8.55;;;;;;;6.42;100.00;100494.88;10459260;28;20041;-67
2023/12/04 00:24:52;;;;;;;49.88;8.55;;;;;;;6.35;100.00;100492.78;10457297;28;20087;-67
2023/12/04 00:29:53;;;;;;;84.75;9.13;;;;;;;6.26;100.00;100480.44;10458345;28;20080;-67
2023/12/04 00:34:54;;;;;;;113.75;9.13;;;;;;;6.17;100.00;100473.34;10458783;28;20048;-67
2023/12/04 00:39:55;;;;;;;105.20;8.23;;;;;;;6.09;100.00;100473.19;10458358;28;20044;-67
2023/12/04 00:44:56;;;;;;;121.28;9.30;;;;;;;6.06;100.00;100484.00;10458700;28;20040;-67
2023/12/04 00:49:56;;;;;;;103.38;9.90;;;;;;;5.96;100.00;100481.34;10458061;28;20033;-67
2023/12/04 00:54:57;;;;;;;123.45;8.57;;;;;;;5.88;100.00;100491.69;10458515;28;20048;-67
2023/12/04 00:59:58;;;;;;;163.15;9.15;;;;;;;5.77;100.00;100476.78;10457645;28;20162;-67
2023/12/04 01:04:59;;;;;;;235.75;10.30;;;;;;;5.70;100.00;100476.50;10457529;28;20045;-67
2023/12/04 01:10:00;;;;;;;188.80;9.68;;;;;;;5.37;100.00;100445.16;10456672;28;20032;-67
2023/12/04 01:15:01;;;;;;;112.13;7.32;;;;;;;5.03;100.00;100411.19;10457294;28;20040;-67
2023/12/04 01:20:02;;;;;;;203.15;9.00;;;;;;;5.31;100.00;100475.50;10456229;28;20045;-67
2023/12/04 01:25:03;;;;;;;70.65;6.10;;;;;;;5.15;100.00;100457.53;10457161;28;20057;-67
2023/12/04 01:30:07;;;;;;;141.02;7.75;;;;;;;5.20;100.00;100476.41;10456328;28;20044;-67
2023/12/04 01:35:08;;;;;;;67.10;7.68;;;;;;;5.25;100.00;100487.38;10456623;28;20040;-67
2023/12/04 01:40:10;;;;;;;45.55;5.38;;;;;;;5.26;100.00;100486.44;10455220;28;20041;-67
2023/12/04 01:45:10;;;;;;;51.58;5.88;;;;;;;5.25;100.00;100497.09;10455335;28;20087;-67
2023/12/04 01:50:12;;;;;;;52.65;6.05;;;;;;;5.19;100.00;100490.53;10454168;28;20087;-67
2023/12/04 01:55:15;;;;;;;52.25;6.32;;;;;;;5.07;100.00;100488.13;10455492;28;20047;-67
2023/12/04 02:00:16;;;;;;;61.78;6.38;;;;;;;4.96;100.00;100484.56;10455191;28;20418;-67
2023/12/04 02:05:17;;;;;;;26.88;5.93;;;;;;;4.95;100.00;100488.16;10455241;28;20033;-67
2023/12/04 02:10:18;;;;;;;16.45;5.55;;;;;;;4.51;100.00;100431.34;10453848;28;20049;-67
2023/12/04 02:15:19;;;;;;;13.20;5.95;;;;;;;4.30;100.00;100418.16;10450053;28;20528;-67
2023/12/04 02:20:19;;;;;;;20.60;6.15;;;;;;;4.57;100.00;100489.53;10432314;28;20574;-67
2023/12/04 02:25:20;;;;;;;57.72;7.10;;;;;;;4.29;100.00;100448.06;10412833;28;20053;-67
2023/12/04 02:30:24;;;;;;;68.50;7.57;;;;;;;4.48;100.00;100471.88;10420690;28;20072;-67
2023/12/04 02:35:29;;;;;;;109.50;8.10;;;;;;;4.33;100.00;100481.03;10453959;28;20076;-67
2023/12/04 02:40:30;;;;;;;11.57;5.95;;;;;;;4.45;100.00;100508.94;10420021;28;20049;-67
2023/12/04 02:45:31;;;;;;;33.10;6.03;;;;;;;4.44;100.00;100517.81;10452546;28;20037;-67
2023/12/04 02:50:32;;;;;;;10.25;6.13;;;;;;;4.45;100.00;100527.38;10454177;28;20047;-67
2023/12/04 02:55:32;;;;;;;8.20;6.03;;;;;;;4.40;100.00;100539.22;10453437;28;20107;-67
2023/12/04 03:00:33;;;;;;;6.68;5.20;;;;;;;4.27;100.00;100507.81;10453491;28;20060;-68
2023/12/04 03:05:34;;;;;;;8.65;5.28;;;;;;;4.10;100.00;100532.84;10453681;28;20051;-68
2023/12/04 03:10:35;;;;;;;6.60;5.32;;;;;;;4.15;100.00;100535.09;10453125;28;20041;-67
2023/12/04 03:15:35;;;;;;;6.50;4.88;;;;;;;3.83;100.00;100493.81;10453567;28;20123;-68
2023/12/04 03:20:36;;;;;;;6.72;5.10;;;;;;;4.10;100.00;100544.19;10440253;28;20041;-68
2023/12/04 03:25:37;;;;;;;16.63;5.15;;;;;;;4.03;100.00;100540.34;10454834;28;20060;-68
2023/12/04 03:30:38;;;;;;;7.07;5.38;;;;;;;4.07;100.00;100549.69;10453274;28;20045;-69
2023/12/04 03:35:38;;;;;;;9.38;5.10;;;;;;;4.07;100.00;100552.31;10426801;28;20046;-69
2023/12/04 03:40:39;;;;;;;20.83;5.80;;;;;;;4.07;100.00;100541.81;10411505;28;20132;-68
2023/12/04 03:45:40;;;;;;;11.02;5.00;;;;;;;3.95;100.00;100529.63;10417501;28;20551;-69
2023/12/04 03:50:40;;;;;;;7.80;5.03;;;;;;;4.07;100.00;100539.19;10419386;28;20102;-69
2023/12/04 03:55:41;;;;;;;6.45;4.63;;;;;;;3.76;100.00;100508.38;10418944;28;20209;-68
2023/12/04 04:00:43;;;;;;;27.83;11.27;;;;;;;3.62;100.00;100493.66;10419337;28;20072;-68
2023/12/04 04:05:44;;;;;;;20.25;7.00;;;;;;;4.01;100.00;100550.19;10418353;28;20436;-69
2023/12/04 04:10:45;;;;;;;25.75;10.75;;;;;;;4.05;100.00;100548.97;10418235;28;20042;-68
2023/12/04 04:15:46;;;;;;;18.35;6.18;;;;;;;3.83;100.00;100518.28;10418095;28;20057;-69
2023/12/04 04:20:46;;;;;;;21.58;6.45;;;;;;;3.74;100.00;100513.75;10417647;28;20033;-69
2023/12/04 04:25:47;;;;;;;18.33;5.82;;;;;;;3.43;100.00;100457.50;10417980;28;20143;-69
2023/12/04 04:30:48;;;;;;;9.35;5.50;;;;;;;4.04;100.00;100563.09;10417642;28;20045;-67
2023/12/04 04:35:49;;;;;;;20.73;5.43;;;;;;;4.02;100.00;100562.34;10416836;28;20068;-68
2023/12/04 04:40:49;;;;;;;15.23;6.15;;;;;;;4.19;100.00;100560.19;10416917;28;20067;-68
2023/12/04 04:45:50;;;;;;;23.88;6.05;;;;;;;3.95;100.00;100498.09;10417123;28;20115;-69
2023/12/04 04:50:51;;;;;;;11.10;5.80;;;;;;;4.20;100.00;100552.19;10417382;28;20038;-68
2023/12/04 04:55:52;;;;;;;11.32;5.60;;;;;;;4.36;100.00;100557.03;10416303;28;20045;-68
2023/12/04 05:00:53;;;;;;;14.55;5.90;;;;;;;4.43;100.00;100557.38;10416350;28;20044;-67
2023/12/04 05:05:54;;;;;;;13.18;6.10;;;;;;;4.67;100.00;100546.69;10416414;28;20041;-68
2023/12/04 05:10:54;;;;;;;10.80;5.65;;;;;;;4.53;100.00;100495.19;10416149;28;20041;-68
2023/12/04 05:15:55;;;;;;;14.20;5.25;;;;;;;4.62;100.00;100449.72;10416451;28;20045;-68
2023/12/04 05:20:56;;;;;;;18.08;6.03;;;;;;;5.40;100.00;100540.56;10415494;28;20512;-68
2023/12/04 05:25:57;;;;;;;10.52;5.55;;;;;;;5.48;100.00;100503.88;10415075;28;20041;-69
2023/12/04 05:30:57;;;;;;;14.88;10.20;;;;;;;5.59;100.00;100524.03;10415897;28;20548;-67
2023/12/04 05:36:00;;;;;;;12.65;7.28;;;;;;;5.55;100.00;100503.34;10414091;28;20065;-67
2023/12/04 05:41:01;;;;;;;11.20;7.55;;;;;;;5.63;100.00;100525.44;10413721;28;20044;-67
2023/12/04 05:46:01;;;;;;;11.93;8.50;;;;;;;5.91;100.00;100550.25;10413655;28;20033;-68
2023/12/04 05:51:02;;;;;;;15.02;7.95;;;;;;;5.67;100.00;100505.75;10414356;28;20514;-68
2023/12/04 05:56:05;;;;;;;25.10;12.18;;;;;;;6.01;100.00;100554.75;10414444;28;20041;-68
2023/12/04 06:01:06;;;;;;;42.75;21.45;;;;;;;6.15;100.00;100557.88;10414240;28;20486;-67
2023/12/04 06:06:07;;;;;;;16.90;11.52;;;;;;;5.62;100.00;100465.78;10413393;28;20509;-67
2023/12/04 06:11:08;;;;;;;20.73;13.32;;;;;;;6.24;100.00;100560.66;10414088;28;20041;-68
2023/12/04 06:16:09;;;;;;;22.27;8.75;;;;;;;5.90;100.00;100506.41;10414057;28;20045;-68
2023/12/04 06:21:10;;;;;;;15.52;8.40;;;;;;;6.31;100.00;100573.19;10413406;28;20061;-68
2023/12/04 06:26:12;;;;;;;12.48;7.10;;;;;;;6.01;100.00;100520.47;10412961;28;20056;-68
2023/12/04 06:31:15;;;;;;;12.07;7.35;;;;;;;6.39;100.00;100569.88;10411621;28;20107;-68
2023/12/04 06:36:17;;;;;;;16.00;7.10;;;;;;;6.44;100.00;100580.03;10413033;28;20439;-69
2023/12/04 06:41:18;;;;;;;8.15;6.22;;;;;;;6.46;100.00;100600.06;10412328;28;20041;-67
2023/12/04 06:46:21;;;;;;;9.05;6.22;;;;;;;6.15;100.00;100544.66;10413134;28;20069;-69
2023/12/04 06:51:21;;;;;;;8.63;6.45;;;;;;;6.32;100.00;100548.47;10411753;28;20044;-68
2023/12/04 06:56:22;;;;;;;11.65;6.80;;;;;;;6.79;100.00;100574.22;10412876;28;20053;-69
2023/12/04 07:01:23;;;;;;;8.65;6.97;;;;;;;7.04;100.00;100565.78;10412983;28;20124;-67
2023/12/04 07:06:24;;;;;;;13.85;7.70;;;;;;;7.34;100.00;100565.75;10412067;28;20128;-67
2023/12/04 07:11:24;;;;;;;10.20;7.47;;;;;;;7.94;100.00;100577.69;10412073;28;20091;-68
2023/12/04 07:16:26;;;;;;;10.77;7.63;;;;;;;8.18;100.00;100556.00;10413796;28;20099;-68
2023/12/04 07:21:26;;;;;;;13.77;8.70;;;;;;;8.42;100.00;100520.22;10419844;28;20053;-68
2023/12/04 07:26:28;;;;;;;16.30;8.65;;;;;;;8.82;100.00;100532.19;10425619;28;20052;-67
2023/12/04 07:31:29;;;;;;;13.13;9.25;;;;;;;9.10;100.00;100540.88;10450377;28;20412;-68
2023/12/04 07:36:29;;;;;;;13.30;10.02;;;;;;;9.19;100.00;100481.66;10461696;28;20045;-68
2023/12/04 07:41:30;;;;;;;22.10;12.32;;;;;;;9.79;100.00;100523.25;10460297;28;20037;-69
2023/12/04 07:46:31;;;;;;;21.80;13.27;;;;;;;10.17;100.00;100531.69;10461546;28;20370;-68
2023/12/04 07:51:32;;;;;;;21.67;14.43;;;;;;;10.25;100.00;100518.47;10459985;28;20037;-68
2023/12/04 07:56:33;;;;;;;27.20;15.85;;;;;;;10.48;100.00;100513.41;10460065;28;20047;-68
2023/12/04 08:01:34;;;;;;;23.25;15.82;;;;;;;10.77;100.00;100509.44;10447992;28;20043;-68
2023/12/04 08:06:35;;;;;;;24.25;14.77;;;;;;;11.04;99.96;100493.19;10459849;28;20045;-68
2023/12/04 08:11:37;;;;;;;22.85;15.55;;;;;;;11.47;98.27;100501.75;10460363;28;20036;-66
2023/12/04 08:16:37;;;;;;;23.88;12.45;;;;;;;11.69;96.42;100481.56;10458884;28;20079;-66
2023/12/04 08:21:38;;;;;;;25.70;14.15;;;;;;;11.80;95.71;100424.47;10459696;28;20488;-67
2023/12/04 08:26:40;;;;;;;20.23;11.13;;;;;;;12.26;94.08;100460.00;10459107;28;20135;-67
2023/12/04 08:31:40;;;;;;;27.60;11.18;;;;;;;12.12;93.03;100396.88;10456539;28;20116;-67
2023/12/04 08:36:41;;;;;;;18.13;10.98;;;;;;;12.22;94.19;100444.56;10458331;28;20135;-67
2023/12/04 08:41:47;;;;;;;23.23;12.82;;;;;;;12.07;93.99;100434.66;10458594;28;20507;-67
2023/12/04 08:46:47;;;;;;;21.38;12.80;;;;;;;11.95;94.91;100438.72;10455312;28;20034;-67
2023/12/04 08:51:48;;;;;;;25.55;13.02;;;;;;;11.84;95.75;100442.56;10449592;28;20586;-68
2023/12/04 08:56:49;;;;;;;15.18;10.75;;;;;;;11.66;96.61;100384.28;10457982;28;20095;-68
2023/12/04 09:01:49;;;;;;;16.38;9.65;;;;;;;11.96;97.87;100432.38;10457183;28;20124;-66
2023/12/04 09:06:50;;;;;;;12.50;9.75;;;;;;;11.85;98.87;100414.16;10456959;28;20091;-67
2023/12/04 09:11:51;;;;;;;21.58;10.00;;;;;;;12.29;98.72;100441.03;10457790;28;20037;-66
2023/12/04 09:16:52;;;;;;;37.75;12.05;;;;;;;12.58;97.92;100431.50;10456468;28;20398;-67
2023/12/04 09:21:53;;;;;;;38.50;12.05;;;;;;;12.97;96.29;100422.47;10447456;28;20062;-66
2023/12/04 09:26:55;;;;;;;26.05;12.00;;;;;;;13.53;94.17;100432.75;10442348;28;20044;-66
2023/12/04 09:31:55;;;;;;;36.13;13.38;;;;;;;13.82;91.76;100402.50;10456375;28;20036;-68
2023/12/04 09:36:56;;;;;;;36.55;13.00;;;;;;;14.15;90.66;100416.25;10456351;28;20045;-68
2023/12/04 09:41:59;;;;;;;36.00;13.95;;;;;;;14.33;90.04;100411.28;10454475;28;20090;-68
2023/12/04 09:47:02;;;;;;;23.75;13.10;;;;;;;14.33;89.96;100399.78;10456031;28;20589;-68
2023/12/04 09:52:04;;;;;;;22.52;12.10;;;;;;;14.37;89.78;100398.38;10426500;28;20485;-67
2023/12/04 09:57:05;;;;;;;21.17;12.27;;;;;;;14.22;89.19;100366.38;10447183;28;20045;-67
2023/12/04 10:02:06;;;;;;;20.30;12.75;;;;;;;14.57;89.29;100403.94;10453802;28;20060;-66
2023/12/04 10:07:07;;;;;;;20.00;12.07;;;;;;;14.46;89.03;100389.19;10433886;28;20500;-66
2023/12/04 10:12:11;;;;;;;20.38;12.00;;;;;;;14.22;88.65;100368.22;10445563;28;20037;-66
2023/12/04 10:17:17;;;;;;;34.78;13.40;;;;;;;14.21;88.94;100369.22;10455504;28;20069;-68
2023/12/04 10:22:18;;;;;;;18.83;12.70;;;;;;;14.36;89.33;100410.09;10455294;28;20421;-66
2023/12/04 10:27:26;;;;;;;20.27;12.90;;;;;;;14.16;89.68;100410.72;10454128;28;20033;-66
2023/12/04 10:32:27;;;;;;;19.35;12.73;;;;;;;14.44;89.86;100407.28;10454994;28;20052;-67
2023/12/04 10:37:30;;;;;;;24.17;12.63;;;;;;;14.40;89.05;100355.22;10453746;28;20511;-65
2023/12/04 10:42:31;;;;;;;16.98;11.32;;;;;;;14.55;89.13;100344.50;10453655;28;20129;-67
2023/12/04 10:47:35;;;;;;;17.25;11.88;;;;;;;14.92;87.74;100388.75;10442926;28;20768;-68
2023/12/04 10:52:38;;;;;;;18.05;10.43;;;;;;;14.84;87.92;100386.25;10458168;28;20116;-67
2023/12/04 10:57:43;;;;;;;22.23;10.68;;;;;;;14.91;87.38;100397.00;10456276;28;20534;-67
2023/12/04 11:02:47;;;;;;;16.10;9.73;;;;;;;14.63;87.06;100340.81;10458389;28;20037;-70
2023/12/04 11:07:52;;;;;;;19.73;9.10;;;;;;;14.84;86.96;100383.59;10458000;28;20396;-68
2023/12/04 11:13:18;;;;;;;18.77;9.88;;;;;;;14.70;85.92;100363.94;10461924;28;20079;-66
2023/12/04 11:18:23;;;;;;;23.83;10.80;;;;;;;14.78;87.32;100377.16;10460695;28;20033;-66
2023/12/04 11:23:25;;;;;;;18.70;9.98;;;;;;;14.93;87.54;100385.09;10462085;28;20064;-72
2023/12/04 11:28:27;;;;;;;18.38;10.75;;;;;;;14.75;87.19;100350.00;10461438;28;20044;-72
2023/12/04 11:33:28;;;;;;;18.45;11.05;;;;;;;14.95;87.43;100396.41;10451938;28;20099;-73
2023/12/04 11:38:30;;;;;;;13.48;7.45;;;;;;;14.82;87.51;100396.31;10457383;28;20131;-72
2023/12/04 11:43:32;;;;;;;12.60;7.03;;;;;;;14.81;88.70;100413.41;10460553;28;20520;-75
2023/12/04 11:48:33;;;;;;;16.27;6.97;;;;;;;14.30;89.10;100347.53;10461088;28;20041;-73
2023/12/04 11:53:40;;;;;;;9.20;6.57;;;;;;;14.50;88.97;100397.66;10458253;28;20045;-73
2023/12/04 11:58:45;;;;;;;10.68;6.63;;;;;;;14.54;89.74;100428.38;10441771;28;20040;-73
2023/12/04 12:03:51;;;;;;;11.35;6.35;;;;;;;14.37;90.21;100412.56;10454998;28;20393;-72
2023/12/04 12:08:52;;;;;;;9.60;6.78;;;;;;;14.31;90.29;100423.19;10460540;28;20398;-67
2023/12/04 12:13:56;;;;;;;14.13;6.88;;;;;;;14.32;90.53;100430.19;10459372;28;20048;-67
2023/12/04 12:18:56;;;;;;;21.00;6.68;;;;;;;14.30;90.90;100435.72;10457825;28;20132;-67
2023/12/04 12:23:58;;;;;;;12.70;6.47;;;;;;;14.12;90.96;100420.13;10459550;28;20132;-69
2023/12/04 12:28:58;;;;;;;11.40;6.55;;;;;;;14.07;91.22;100429.72;10458600;28;20037;-67
2023/12/04 12:33:59;;;;;;;15.27;8.65;;;;;;;13.97;92.24;100437.19;10458626;28;20037;-67
2023/12/04 12:39:03;;;;;;;20.77;11.18;;;;;;;13.82;93.00;100434.53;10451532;28;20503;-68
2023/12/04 12:44:05;;;;;;;20.63;9.82;;;;;;;13.70;93.29;100427.03;10420631;28;20064;-67
2023/12/04 12:49:06;;;;;;;25.20;11.82;;;;;;;13.27;93.66;100387.88;10429710;28;20486;-67
2023/12/04 12:54:07;;;;;;;16.48;6.97;;;;;;;13.40;94.53;100446.72;10418719;28;20092;-67
2023/12/04 12:59:08;;;;;;;13.70;7.70;;;;;;;13.17;95.27;100442.28;10454301;28;20033;-66
2023/12/04 13:04:15;;;;;;;55.58;10.35;;;;;;;12.97;96.54;100436.63;10417299;28;20163;-66
2023/12/04 13:09:18;;;;;;;18.20;8.50;;;;;;;12.79;96.83;100444.13;10416292;28;20037;-66
2023/12/04 13:14:19;;;;;;;19.13;7.13;;;;;;;12.53;97.73;100447.19;10415350;28;20133;-66
2023/12/04 13:19:20;;;;;;;10.75;6.07;;;;;;;12.24;98.86;100439.91;10433140;28;20473;-67
2023/12/04 13:24:21;;;;;;;20.02;7.35;;;;;;;11.75;99.68;100390.38;10456608;28;20051;-66
2023/12/04 13:29:23;;;;;;;12.55;7.00;;;;;;;11.87;100.00;100444.09;10442163;28;20055;-66
2023/12/04 13:34:23;;;;;;;21.70;7.60;;;;;;;11.79;100.00;100452.94;10430887;28;20132;-66
2023/12/04 13:39:38;;;;;;;15.27;7.47;;;;;;;11.67;100.00;100422.38;10435536;28;20116;-66
2023/12/04 13:44:41;;;;;;;19.83;10.02;;;;;;;11.66;100.00;100437.50;10420575;28;20045;-67
2023/12/04 13:49:41;;;;;;;22.90;12.82;;;;;;;11.31;100.00;100422.84;10429337;28;20569;-66
2023/12/04 13:54:47;;;;;;;29.00;12.23;;;;;;;11.25;100.00;100450.13;10418793;28;20053;-67
2023/12/04 13:59:48;;;;;;;33.83;18.13;;;;;;;10.84;100.00;100407.66;10447918;28;20412;-67
2023/12/04 14:04:49;;;;;;;47.08;24.45;;;;;;;10.57;100.00;100392.88;10451020;28;20509;-68
2023/12/04 14:09:50;;;;;;;41.15;20.60;;;;;;;10.62;100.00;100438.38;10444688;28;20037;-67
2023/12/04 14:14:57;;;;;;;56.75;22.48;;;;;;;10.55;100.00;100458.63;10444427;28;20477;-66
2023/12/04 14:19:57;;;;;;;83.10;34.20;;;;;;;10.38;100.00;100448.97;10455441;28;20041;-66
2023/12/04 14:24:58;;;;;;;61.22;29.50;;;;;;;10.11;100.00;100445.59;10454924;28;20456;-66
2023/12/04 14:29:59;;;;;;;191.10;93.00;;;;;;;9.99;100.00;100457.47;10450831;28;20067;-66
2023/12/04 14:35:00;;;;;;;147.68;65.72;;;;;;;9.75;100.00;100456.44;10432194;28;20040;-66
2023/12/04 14:40:01;;;;;;;140.73;57.25;;;;;;;9.18;100.00;100410.22;10451484;28;20095;-66
2023/12/04 14:45:02;;;;;;;106.35;48.33;;;;;;;9.44;100.00;100464.06;10392609;28;20049;-66
2023/12/04 14:50:04;;;;;;;110.72;49.03;;;;;;;9.32;100.00;100466.16;10400387;28;20133;-65
2023/12/04 15:11:10;;;;;;;84.32;39.90;;;;;;;8.84;100.00;100458.69;10400160;28;20680;-67
2023/12/04 15:16:19;;;;;;;75.97;35.05;;;;;;;8.74;100.00;100455.31;10395210;28;20053;-67
2023/12/04 15:21:21;;;;;;;80.20;34.53;;;;;;;8.03;100.00;100353.75;10416297;28;20056;-67
2023/12/04 15:26:23;;;;;;;75.40;33.70;;;;;;;8.54;100.00;100463.41;10400300;28;20137;-67
2023/12/04 15:31:24;;;;;;;39.22;21.92;;;;;;;8.07;100.00;100415.94;10412162;28;20095;-66
2023/12/04 15:36:24;;;;;;;52.58;27.55;;;;;;;8.31;100.00;100489.47;10410477;28;20524;-68
2023/12/04 15:41:25;;;;;;;54.15;27.30;;;;;;;8.22;100.00;100493.84;10419164;28;20048;-67
2023/12/04 15:46:27;;;;;;;65.57;30.13;;;;;;;7.86;100.00;100447.97;10419449;28;20045;-67
2023/12/04 15:51:28;;;;;;;53.22;25.17;;;;;;;7.74;100.00;100447.34;10420007;28;20072;-66
2023/12/04 15:56:29;;;;;;;45.33;23.10;;;;;;;7.98;100.00;100486.47;10418554;28;20468;-66
2023/12/04 16:01:29;;;;;;;44.78;23.50;;;;;;;7.76;100.00;100450.66;10418645;28;20493;-66
2023/12/04 16:06:30;;;;;;;43.15;18.95;;;;;;;7.76;100.00;100492.16;10418963;28;20386;-67
2023/12/04 16:11:31;;;;;;;29.15;16.70;;;;;;;7.59;100.00;100488.47;10439057;28;20041;-67
2023/12/04 16:16:32;;;;;;;21.10;13.00;;;;;;;7.44;100.00;100493.38;10459637;28;20136;-67
2023/12/04 16:21:34;;;;;;;28.27;13.20;;;;;;;7.39;100.00;100495.63;10459522;28;20536;-67
2023/12/04 16:26:37;;;;;;;18.27;11.38;;;;;;;7.32;100.00;100492.72;10459148;28;20037;-66
2023/12/04 16:31:40;;;;;;;15.77;10.90;;;;;;;7.27;100.00;100496.78;10459220;28;20045;-67
2023/12/04 16:36:40;;;;;;;17.65;10.40;;;;;;;7.22;100.00;100499.00;10458804;28;20040;-67
2023/12/04 16:41:42;;;;;;;19.85;11.77;;;;;;;7.10;100.00;100493.06;10458157;28;20033;-67
2023/12/04 16:46:46;;;;;;;24.38;11.85;;;;;;;6.71;100.00;100448.22;10458807;28;20068;-67
2023/12/04 16:51:47;;;;;;;25.85;11.50;;;;;;;7.01;100.00;100507.13;10458143;28;20071;-67
2023/12/04 16:56:51;;;;;;;21.65;11.52;;;;;;;6.94;100.00;100487.50;10458015;28;20109;-67
2023/12/04 17:01:51;;;;;;;17.38;10.20;;;;;;;6.84;100.00;100506.84;10458500;28;20033;-67
2023/12/04 17:06:53;;;;;;;18.55;13.40;;;;;;;6.86;100.00;100520.75;10457114;28;20041;-67
2023/12/04 17:11:54;;;;;;;41.47;30.25;;;;;;;6.70;100.00;100509.91;10457159;28;20037;-67
2023/12/04 17:16:56;;;;;;;30.25;16.67;;;;;;;6.67;100.00;100528.69;10439551;28;20552;-67
2023/12/04 17:21:58;;;;;;;23.80;15.32;;;;;;;6.62;100.00;100525.59;10415546;28;20057;-67
2023/12/04 17:26:59;;;;;;;24.58;13.15;;;;;;;6.73;100.00;100556.31;10422163;28;20436;-68
2023/12/04 17:32:01;;;;;;;20.02;12.27;;;;;;;6.86;100.00;100531.31;10415099;28;20045;-68
2023/12/04 17:37:02;;;;;;;16.83;11.45;;;;;;;7.10;100.00;100543.25;10421152;28;20063;-68
2023/12/04 17:42:04;;;;;;;19.90;11.60;;;;;;;7.39;100.00;100555.56;10456434;28;20061;-68
2023/12/04 17:47:05;;;;;;;16.98;12.60;;;;;;;7.58;100.00;100560.81;10455631;28;20041;-68
2023/12/04 17:52:06;;;;;;;20.98;12.93;;;;;;;7.85;100.00;100564.50;10456210;28;20041;-68
2023/12/04 17:57:07;;;;;;;53.38;14.40;;;;;;;8.03;100.00;100567.22;10455411;28;20051;-68
2023/12/04 18:02:09;;;;;;;108.00;15.88;;;;;;;8.15;100.00;100574.81;10455277;28;20064;-67
2023/12/04 18:07:10;;;;;;;117.57;15.40;;;;;;;8.26;100.00;100578.25;10454910;28;20041;-68
2023/12/04 18:12:11;;;;;;;46.97;15.27;;;;;;;8.38;100.00;100571.78;10455384;28;20044;-68
2023/12/04 18:17:12;;;;;;;64.93;15.40;;;;;;;8.41;100.00;100560.94;10455209;28;20098;-69
2023/12/04 18:22:13;;;;;;;30.70;15.15;;;;;;;8.52;100.00;100566.00;10453706;28;20171;-68
2023/12/04 18:27:15;;;;;;;36.60;15.77;;;;;;;8.61;100.00;100564.25;10454788;28;20059;-68
2023/12/04 18:32:16;;;;;;;43.03;16.45;;;;;;;8.71;100.00;100564.22;10439317;28;20175;-68
2023/12/04 18:37:23;;;;;;;65.45;17.83;;;;;;;8.87;100.00;100567.00;10434377;28;20177;-68
2023/12/04 18:42:24;;;;;;;70.40;34.97;;;;;;;8.78;100.00;100546.72;10454449;28;20047;-67
2023/12/04 18:47:25;;;;;;;70.45;40.40;;;;;;;9.04;100.00;100563.53;10454376;28;20496;-68
2023/12/04 18:52:27;;;;;;;54.53;30.45;;;;;;;9.16;100.00;100565.94;10448927;28;20033;-68
2023/12/04 18:57:27;;;;;;;51.25;32.03;;;;;;;9.14;100.00;100556.31;10446503;28;20662;-68
2023/12/04 19:02:28;;;;;;;48.65;27.90;;;;;;;9.28;100.00;100559.41;10453637;28;20041;-68
2023/12/04 19:07:30;;;;;;;46.78;20.60;;;;;;;8.99;100.00;100519.91;10454189;28;20119;-67
2023/12/04 19:12:30;;;;;;;32.25;19.67;;;;;;;9.36;100.00;100578.00;10442633;28;20072;-67
2023/12/04 19:17:31;;;;;;;29.98;18.65;;;;;;;9.32;100.00;100564.25;10458115;28;20128;-68
2023/12/04 19:22:32;;;;;;;31.42;19.20;;;;;;;9.39;100.00;100577.69;10439231;28;20060;-67
2023/12/04 19:27:33;;;;;;;24.35;16.95;;;;;;;9.42;100.00;100582.69;10448046;28;20037;-69
2023/12/04 19:32:34;;;;;;;38.33;21.25;;;;;;;9.36;100.00;100567.41;10462027;28;20106;-68
2023/12/04 19:37:35;;;;;;;34.15;19.40;;;;;;;9.45;100.00;100578.91;10460794;28;20048;-68
2023/12/04 19:42:37;;;;;;;27.27;17.25;;;;;;;9.46;100.00;100594.69;10460542;28;20040;-67
2023/12/04 19:47:37;;;;;;;32.33;16.67;;;;;;;9.13;100.00;100535.28;10461390;28;20068;-67
2023/12/04 19:52:41;;;;;;;31.52;18.33;;;;;;;9.39;100.00;100583.00;10460693;28;20071;-67
2023/12/04 19:57:42;;;;;;;38.20;18.38;;;;;;;9.47;100.00;100598.97;10460008;28;20048;-67
2023/12/04 20:02:43;;;;;;;34.95;17.40;;;;;;;9.45;100.00;100587.69;10461443;28;20041;-67
2023/12/04 20:07:43;;;;;;;34.08;20.95;;;;;;;9.40;100.00;100587.34;10460116;28;20037;-67
2023/12/04 20:12:44;;;;;;;39.33;20.77;;;;;;;8.81;100.00;100494.28;10459564;28;20044;-67
2023/12/04 20:17:45;;;;;;;54.63;25.65;;;;;;;9.36;100.00;100600.09;10446374;28;20055;-67
2023/12/04 20:22:46;;;;;;;43.75;23.38;;;;;;;8.91;100.00;100541.88;10458751;28;20110;-68
2023/12/04 20:27:46;;;;;;;45.60;23.73;;;;;;;9.13;100.00;100593.59;10457964;28;20045;-67
2023/12/04 20:32:47;;;;;;;48.17;23.45;;;;;;;9.09;100.00;100608.97;10458765;28;20516;-67
2023/12/04 20:37:48;;;;;;;39.35;24.05;;;;;;;9.03;100.00;100620.16;10458434;28;20048;-67
2023/12/04 20:42:48;;;;;;;42.72;22.80;;;;;;;8.91;100.00;100619.56;10458776;28;20071;-67
2023/12/04 20:47:49;;;;;;;46.60;22.10;;;;;;;8.76;100.00;100633.44;10457977;28;20040;-67
2023/12/04 20:52:50;;;;;;;39.05;23.58;;;;;;;8.63;100.00;100649.69;10458632;28;20457;-67
2023/12/04 20:57:51;;;;;;;36.88;22.42;;;;;;;8.49;100.00;100631.66;10457654;28;20037;-67
2023/12/04 21:02:52;;;;;;;36.50;21.77;;;;;;;8.47;100.00;100645.06;10458507;28;20519;-67
2023/12/04 21:07:52;;;;;;;31.52;20.70;;;;;;;8.37;100.00;100623.88;10457147;28;20072;-67
2023/12/04 21:12:53;;;;;;;34.33;20.20;;;;;;;8.41;100.00;100637.69;10457810;28;20041;-67
2023/12/04 21:17:54;;;;;;;33.78;20.00;;;;;;;8.34;100.00;100626.81;10457954;28;20492;-67
2023/12/04 21:22:55;;;;;;;32.13;20.73;;;;;;;7.98;100.00;100578.22;10457070;28;20053;-67
2023/12/04 21:27:56;;;;;;;30.88;20.70;;;;;;;8.04;100.00;100584.75;10456256;28;20032;-67
2023/12/04 21:32:56;;;;;;;39.25;22.27;;;;;;;8.30;100.00;100627.25;10456079;28;20060;-68
2023/12/04 21:37:59;;;;;;;34.58;22.20;;;;;;;8.17;100.00;100609.91;10454921;28;20051;-67
2023/12/04 21:43:00;;;;;;;34.47;22.27;;;;;;;8.19;100.00;100626.44;10456965;28;20047;-67
2023/12/04 21:48:01;;;;;;;37.65;23.10;;;;;;;7.98;100.00;100591.44;10456252;28;20045;-67
2023/12/04 21:53:02;;;;;;;34.22;23.42;;;;;;;7.93;100.00;100588.44;10455980;28;20400;-67
2023/12/04 21:58:02;;;;;;;34.67;22.52;;;;;;;8.28;100.00;100643.28;10455895;28;20044;-67
2023/12/04 22:03:03;;;;;;;37.35;24.35;;;;;;;8.07;100.00;100619.69;10455595;28;20037;-67
2023/12/04 22:08:04;;;;;;;42.85;23.60;;;;;;;7.92;100.00;100578.81;10455541;28;20044;-67
2023/12/04 22:13:05;;;;;;;38.97;23.90;;;;;;;7.96;100.00;100574.91;10454585;28;20566;-67
2023/12/04 22:18:06;;;;;;;37.47;22.67;;;;;;;8.38;100.00;100640.63;10455095;28;20059;-67
2023/12/04 22:23:07;;;;;;;37.63;23.13;;;;;;;8.20;100.00;100622.84;10454718;28;20053;-67
2023/12/04 22:28:08;;;;;;;37.88;23.27;;;;;;;8.30;100.00;100640.50;10455310;28;20485;-67
2023/12/04 22:33:09;;;;;;;33.13;22.50;;;;;;;8.40;100.00;100657.19;10453673;28;20044;-67
2023/12/04 22:38:09;;;;;;;34.55;23.67;;;;;;;8.07;100.00;100614.38;10454051;28;20500;-68
2023/12/04 22:43:11;;;;;;;37.13;23.42;;;;;;;8.12;100.00;100624.56;10445571;28;20045;-67
2023/12/04 22:48:12;;;;;;;35.40;22.90;;;;;;;7.89;100.00;100600.25;10449861;28;20040;-67
2023/12/04 22:53:13;;;;;;;42.22;25.13;;;;;;;8.34;100.00;100686.88;10453657;28;20037;-67
2023/12/04 22:58:13;;;;;;;40.10;23.88;;;;;;;7.71;100.00;100595.72;10453559;28;20045;-68